sensor_id;sensor_type;location;lat;lon;timestamp;temperature;humidity
85959;DHT22;76529;42.660;23.328;2024-03-02T00:00:21;11.40;59.26
85959;DHT22;76529;42.660;23.328;2024-03-02T00:02:48;11.38;58.97
85959;DHT22;76529;42.660;23.328;2024-03-02T00:05:18;11.42;59.15
85959;DHT22;76529;42.660;23.328;2024-03-02T00:07:46;11.41;58.77
85959;DHT22;76529;42.660;23.328;2024-03-02T00:10:20;11.44;58.82
85959;DHT22;76529;42.660;23.328;2024-03-02T00:12:47;11.45;58.75
85959;DHT22;76529;42.660;23.328;2024-03-02T00:18:10;11.48;58.77
85959;DHT22;76529;42.660;23.328;2024-03-02T00:20:37;11.48;58.69
85959;DHT22;76529;42.660;23.328;2024-03-02T00:23:04;11.52;58.72
85959;DHT22;76529;42.660;23.328;2024-03-02T00:28:01;11.55;58.64
85959;DHT22;76529;42.660;23.328;2024-03-02T00:33:11;11.57;58.49
85959;DHT22;76529;42.660;23.328;2024-03-02T00:35:37;11.57;58.57
85959;DHT22;76529;42.660;23.328;2024-03-02T00:38:06;11.59;58.46
85959;DHT22;76529;42.660;23.328;2024-03-02T00:40:31;11.59;58.32
85959;DHT22;76529;42.660;23.328;2024-03-02T00:42:57;11.64;58.59
85959;DHT22;76529;42.660;23.328;2024-03-02T00:45:23;11.67;58.37
85959;DHT22;76529;42.660;23.328;2024-03-02T00:47:50;11.67;58.30
85959;DHT22;76529;42.660;23.328;2024-03-02T00:50:16;11.72;58.29
85959;DHT22;76529;42.660;23.328;2024-03-02T00:52:42;11.71;58.31
85959;DHT22;76529;42.660;23.328;2024-03-02T00:55:08;11.72;58.46
85959;DHT22;76529;42.660;23.328;2024-03-02T00:57:34;11.72;58.21
85959;DHT22;76529;42.660;23.328;2024-03-02T01:00:00;11.75;58.21
85959;DHT22;76529;42.660;23.328;2024-03-02T01:02:26;11.74;58.02
85959;DHT22;76529;42.660;23.328;2024-03-02T01:04:52;11.77;58.14
85959;DHT22;76529;42.660;23.328;2024-03-02T01:07:17;11.78;57.98
85959;DHT22;76529;42.660;23.328;2024-03-02T01:09:43;11.81;57.96
85959;DHT22;76529;42.660;23.328;2024-03-02T01:12:08;11.85;57.80
85959;DHT22;76529;42.660;23.328;2024-03-02T01:14:34;11.89;57.74
85959;DHT22;76529;42.660;23.328;2024-03-02T01:17:00;11.92;57.74
85959;DHT22;76529;42.660;23.328;2024-03-02T01:19:28;11.93;57.64
85959;DHT22;76529;42.660;23.328;2024-03-02T01:21:54;11.93;57.63
85959;DHT22;76529;42.660;23.328;2024-03-02T01:24:20;11.93;57.65
85959;DHT22;76529;42.660;23.328;2024-03-02T01:26:45;11.92;57.70
85959;DHT22;76529;42.660;23.328;2024-03-02T01:29:11;11.93;57.55
85959;DHT22;76529;42.660;23.328;2024-03-02T01:31:36;11.96;57.54
85959;DHT22;76529;42.660;23.328;2024-03-02T01:34:02;11.98;57.63
85959;DHT22;76529;42.660;23.328;2024-03-02T01:36:27;11.96;57.64
85959;DHT22;76529;42.660;23.328;2024-03-02T01:38:52;11.98;57.61
85959;DHT22;76529;42.660;23.328;2024-03-02T01:41:18;11.99;57.67
85959;DHT22;76529;42.660;23.328;2024-03-02T01:43:43;11.96;57.77
85959;DHT22;76529;42.660;23.328;2024-03-02T01:46:09;11.98;57.74
85959;DHT22;76529;42.660;23.328;2024-03-02T01:48:34;12.02;57.75
85959;DHT22;76529;42.660;23.328;2024-03-02T01:51:00;12.05;57.69
85959;DHT22;76529;42.660;23.328;2024-03-02T01:53:26;12.06;57.65
85959;DHT22;76529;42.660;23.328;2024-03-02T01:55:52;12.05;57.60
85959;DHT22;76529;42.660;23.328;2024-03-02T01:58:17;12.10;57.66
85959;DHT22;76529;42.660;23.328;2024-03-02T02:00:43;12.13;57.65
85959;DHT22;76529;42.660;23.328;2024-03-02T02:03:08;12.13;57.70
85959;DHT22;76529;42.660;23.328;2024-03-02T02:05:34;12.15;57.62
85959;DHT22;76529;42.660;23.328;2024-03-02T02:08:01;12.17;57.51
85959;DHT22;76529;42.660;23.328;2024-03-02T02:10:26;12.19;57.49
85959;DHT22;76529;42.660;23.328;2024-03-02T02:12:52;12.22;57.54
85959;DHT22;76529;42.660;23.328;2024-03-02T02:15:28;12.25;57.40
85959;DHT22;76529;42.660;23.328;2024-03-02T02:17:58;12.26;57.31
85959;DHT22;76529;42.660;23.328;2024-03-02T02:20:24;12.26;57.32
85959;DHT22;76529;42.660;23.328;2024-03-02T02:22:57;12.30;57.22
85959;DHT22;76529;42.660;23.328;2024-03-02T02:25:23;12.32;57.27
85959;DHT22;76529;42.660;23.328;2024-03-02T02:27:49;12.37;57.35
85959;DHT22;76529;42.660;23.328;2024-03-02T02:30:19;12.38;57.37
85959;DHT22;76529;42.660;23.328;2024-03-02T02:32:45;12.40;57.38
85959;DHT22;76529;42.660;23.328;2024-03-02T02:35:10;12.44;57.45
85959;DHT22;76529;42.660;23.328;2024-03-02T02:37:35;12.47;57.41
85959;DHT22;76529;42.660;23.328;2024-03-02T02:40:02;12.53;57.34
85959;DHT22;76529;42.660;23.328;2024-03-02T02:42:30;12.58;57.18
85959;DHT22;76529;42.660;23.328;2024-03-02T02:44:55;12.61;57.07
85959;DHT22;76529;42.660;23.328;2024-03-02T02:47:21;12.64;57.00
85959;DHT22;76529;42.660;23.328;2024-03-02T02:49:46;12.65;56.98
85959;DHT22;76529;42.660;23.328;2024-03-02T02:52:12;12.68;56.95
85959;DHT22;76529;42.660;23.328;2024-03-02T02:54:37;12.71;56.88
85959;DHT22;76529;42.660;23.328;2024-03-02T02:57:03;12.74;56.92
85959;DHT22;76529;42.660;23.328;2024-03-02T02:59:28;12.74;56.94
85959;DHT22;76529;42.660;23.328;2024-03-02T03:01:54;12.77;56.89
85959;DHT22;76529;42.660;23.328;2024-03-02T03:04:19;12.78;56.86
85959;DHT22;76529;42.660;23.328;2024-03-02T03:06:45;12.81;56.76
85959;DHT22;76529;42.660;23.328;2024-03-02T03:09:11;12.85;56.74
85959;DHT22;76529;42.660;23.328;2024-03-02T03:11:37;12.85;56.74
85959;DHT22;76529;42.660;23.328;2024-03-02T03:14:02;12.89;56.68
85959;DHT22;76529;42.660;23.328;2024-03-02T03:16:30;12.89;56.66
85959;DHT22;76529;42.660;23.328;2024-03-02T03:18:56;12.94;56.63
85959;DHT22;76529;42.660;23.328;2024-03-02T03:21:21;12.92;56.73
85959;DHT22;76529;42.660;23.328;2024-03-02T03:23:47;12.95;56.77
85959;DHT22;76529;42.660;23.328;2024-03-02T03:26:12;12.95;56.88
85959;DHT22;76529;42.660;23.328;2024-03-02T03:28:38;12.94;56.96
85959;DHT22;76529;42.660;23.328;2024-03-02T03:31:04;12.98;56.98
85959;DHT22;76529;42.660;23.328;2024-03-02T03:33:29;13.01;56.96
85959;DHT22;76529;42.660;23.328;2024-03-02T03:35:55;13.01;56.92
85959;DHT22;76529;42.660;23.328;2024-03-02T03:38:20;13.05;56.90
85959;DHT22;76529;42.660;23.328;2024-03-02T03:40:46;13.04;56.87
85959;DHT22;76529;42.660;23.328;2024-03-02T03:43:12;13.08;56.88
85959;DHT22;76529;42.660;23.328;2024-03-02T03:45:38;13.12;56.82
85959;DHT22;76529;42.660;23.328;2024-03-02T03:48:03;13.09;56.85
85959;DHT22;76529;42.660;23.328;2024-03-02T03:50:29;13.09;56.83
85959;DHT22;76529;42.660;23.328;2024-03-02T03:52:55;13.12;56.87
85959;DHT22;76529;42.660;23.328;2024-03-02T03:55:20;13.14;56.83
85959;DHT22;76529;42.660;23.328;2024-03-02T03:57:46;13.14;56.84
85959;DHT22;76529;42.660;23.328;2024-03-02T04:00:11;13.15;56.77
85959;DHT22;76529;42.660;23.328;2024-03-02T04:02:37;13.18;56.72
85959;DHT22;76529;42.660;23.328;2024-03-02T04:05:03;13.18;56.72
85959;DHT22;76529;42.660;23.328;2024-03-02T04:07:34;13.20;56.67
85959;DHT22;76529;42.660;23.328;2024-03-02T04:10:06;13.23;56.68
85959;DHT22;76529;42.660;23.328;2024-03-02T04:12:33;13.25;56.69
85959;DHT22;76529;42.660;23.328;2024-03-02T04:14:59;13.23;56.63
85959;DHT22;76529;42.660;23.328;2024-03-02T04:17:25;13.26;56.60
85959;DHT22;76529;42.660;23.328;2024-03-02T04:19:50;13.32;56.57
85959;DHT22;76529;42.660;23.328;2024-03-02T04:22:16;13.33;56.46
85959;DHT22;76529;42.660;23.328;2024-03-02T04:24:41;13.36;56.46
85959;DHT22;76529;42.660;23.328;2024-03-02T04:27:07;13.38;56.38
85959;DHT22;76529;42.660;23.328;2024-03-02T04:29:32;13.36;56.30
85959;DHT22;76529;42.660;23.328;2024-03-02T04:31:58;13.39;56.30
85959;DHT22;76529;42.660;23.328;2024-03-02T04:34:23;13.38;56.29
85959;DHT22;76529;42.660;23.328;2024-03-02T04:36:49;13.39;56.26
85959;DHT22;76529;42.660;23.328;2024-03-02T04:39:15;13.40;56.31
85959;DHT22;76529;42.660;23.328;2024-03-02T04:41:41;13.42;56.24
85959;DHT22;76529;42.660;23.328;2024-03-02T04:44:06;13.43;56.19
85959;DHT22;76529;42.660;23.328;2024-03-02T04:46:33;13.43;56.21
85959;DHT22;76529;42.660;23.328;2024-03-02T04:48:58;13.43;56.17
85959;DHT22;76529;42.660;23.328;2024-03-02T04:51:24;13.42;56.26
85959;DHT22;76529;42.660;23.328;2024-03-02T04:53:49;13.40;56.28
85959;DHT22;76529;42.660;23.328;2024-03-02T04:56:15;13.38;56.31
85959;DHT22;76529;42.660;23.328;2024-03-02T04:58:59;13.35;56.39
85959;DHT22;76529;42.660;23.328;2024-03-02T05:01:24;13.35;56.33
85959;DHT22;76529;42.660;23.328;2024-03-02T05:03:50;13.36;56.29
85959;DHT22;76529;42.660;23.328;2024-03-02T05:06:15;13.38;56.32
85959;DHT22;76529;42.660;23.328;2024-03-02T05:08:41;13.36;56.32
85959;DHT22;76529;42.660;23.328;2024-03-02T05:11:07;13.36;56.37
85959;DHT22;76529;42.660;23.328;2024-03-02T05:13:50;13.35;56.44
85959;DHT22;76529;42.660;23.328;2024-03-02T05:16:16;13.36;56.50
85959;DHT22;76529;42.660;23.328;2024-03-02T05:18:41;13.39;56.55
85959;DHT22;76529;42.660;23.328;2024-03-02T05:21:07;13.40;56.55
85959;DHT22;76529;42.660;23.328;2024-03-02T05:23:33;13.39;56.60
85959;DHT22;76529;42.660;23.328;2024-03-02T05:25:58;13.40;56.61
85959;DHT22;76529;42.660;23.328;2024-03-02T05:28:24;13.42;56.59
85959;DHT22;76529;42.660;23.328;2024-03-02T05:30:50;13.43;56.58
85959;DHT22;76529;42.660;23.328;2024-03-02T05:33:15;13.43;56.60
85959;DHT22;76529;42.660;23.328;2024-03-02T05:35:40;13.42;56.59
85959;DHT22;76529;42.660;23.328;2024-03-02T05:38:06;13.42;56.61
85959;DHT22;76529;42.660;23.328;2024-03-02T05:40:31;13.39;56.70
85959;DHT22;76529;42.660;23.328;2024-03-02T05:42:57;13.39;56.76
85959;DHT22;76529;42.660;23.328;2024-03-02T05:45:22;13.35;56.79
85959;DHT22;76529;42.660;23.328;2024-03-02T05:47:48;13.38;56.81
85959;DHT22;76529;42.660;23.328;2024-03-02T05:50:13;13.39;56.80
85959;DHT22;76529;42.660;23.328;2024-03-02T05:52:39;13.38;56.80
85959;DHT22;76529;42.660;23.328;2024-03-02T05:55:04;13.39;56.74
85959;DHT22;76529;42.660;23.328;2024-03-02T05:57:30;13.39;56.77
85959;DHT22;76529;42.660;23.328;2024-03-02T06:00:15;13.40;56.63
85959;DHT22;76529;42.660;23.328;2024-03-02T06:02:42;13.42;56.62
85959;DHT22;76529;42.660;23.328;2024-03-02T06:05:08;13.42;56.71
85959;DHT22;76529;42.660;23.328;2024-03-02T06:07:34;13.38;56.85
85959;DHT22;76529;42.660;23.328;2024-03-02T06:09:59;13.38;56.92
85959;DHT22;76529;42.660;23.328;2024-03-02T06:12:25;13.32;56.95
85959;DHT22;76529;42.660;23.328;2024-03-02T06:14:50;13.33;56.97
85959;DHT22;76529;42.660;23.328;2024-03-02T06:17:16;13.35;56.99
85959;DHT22;76529;42.660;23.328;2024-03-02T06:19:41;13.29;57.09
85959;DHT22;76529;42.660;23.328;2024-03-02T06:22:07;13.23;57.13
85959;DHT22;76529;42.660;23.328;2024-03-02T06:24:36;13.25;57.09
85959;DHT22;76529;42.660;23.328;2024-03-02T06:27:02;13.23;57.09
85959;DHT22;76529;42.660;23.328;2024-03-02T06:29:28;13.22;57.09
85959;DHT22;76529;42.660;23.328;2024-03-02T06:31:53;13.22;57.13
85959;DHT22;76529;42.660;23.328;2024-03-02T06:34:19;13.23;57.11
85959;DHT22;76529;42.660;23.328;2024-03-02T06:36:44;13.25;57.08
85959;DHT22;76529;42.660;23.328;2024-03-02T06:39:10;13.25;57.08
85959;DHT22;76529;42.660;23.328;2024-03-02T06:41:37;13.23;57.04
85959;DHT22;76529;42.660;23.328;2024-03-02T06:44:03;13.20;57.15
85959;DHT22;76529;42.660;23.328;2024-03-02T06:46:28;13.19;57.13
85959;DHT22;76529;42.660;23.328;2024-03-02T06:48:54;13.16;57.16
85959;DHT22;76529;42.660;23.328;2024-03-02T06:51:20;13.16;57.28
85959;DHT22;76529;42.660;23.328;2024-03-02T06:53:45;13.14;57.27
85959;DHT22;76529;42.660;23.328;2024-03-02T06:56:12;13.09;57.41
85959;DHT22;76529;42.660;23.328;2024-03-02T06:58:37;13.08;57.40
85959;DHT22;76529;42.660;23.328;2024-03-02T07:01:03;13.06;57.42
85959;DHT22;76529;42.660;23.328;2024-03-02T07:03:28;13.08;57.39
85959;DHT22;76529;42.660;23.328;2024-03-02T07:05:54;13.05;57.45
85959;DHT22;76529;42.660;23.328;2024-03-02T07:08:19;13.04;57.56
85959;DHT22;76529;42.660;23.328;2024-03-02T07:10:44;13.04;57.67
85959;DHT22;76529;42.660;23.328;2024-03-02T07:13:10;13.01;58.10
85959;DHT22;76529;42.660;23.328;2024-03-02T07:15:35;12.95;57.88
85959;DHT22;76529;42.660;23.328;2024-03-02T07:18:16;12.89;57.98
85959;DHT22;76529;42.660;23.328;2024-03-02T07:20:41;12.84;58.32
85959;DHT22;76529;42.660;23.328;2024-03-02T07:23:07;12.78;58.33
85959;DHT22;76529;42.660;23.328;2024-03-02T07:25:32;12.75;58.19
85959;DHT22;76529;42.660;23.328;2024-03-02T07:27:58;12.80;58.04
85959;DHT22;76529;42.660;23.328;2024-03-02T07:30:23;12.81;57.95
85959;DHT22;76529;42.660;23.328;2024-03-02T07:32:52;12.85;57.89
85959;DHT22;76529;42.660;23.328;2024-03-02T07:35:17;12.84;57.90
85959;DHT22;76529;42.660;23.328;2024-03-02T07:37:43;12.85;57.92
85959;DHT22;76529;42.660;23.328;2024-03-02T07:40:09;12.88;57.96
85959;DHT22;76529;42.660;23.328;2024-03-02T07:42:39;12.89;57.89
85959;DHT22;76529;42.660;23.328;2024-03-02T07:45:05;12.88;57.98
85959;DHT22;76529;42.660;23.328;2024-03-02T07:47:33;12.89;58.03
85959;DHT22;76529;42.660;23.328;2024-03-02T07:49:58;12.92;58.06
85959;DHT22;76529;42.660;23.328;2024-03-02T07:52:24;12.92;58.09
85959;DHT22;76529;42.660;23.328;2024-03-02T07:54:49;12.95;58.11
85959;DHT22;76529;42.660;23.328;2024-03-02T07:57:15;12.95;58.12
85959;DHT22;76529;42.660;23.328;2024-03-02T07:59:40;12.99;58.16
85959;DHT22;76529;42.660;23.328;2024-03-02T08:02:06;13.01;58.13
85959;DHT22;76529;42.660;23.328;2024-03-02T08:04:32;12.99;58.12
85959;DHT22;76529;42.660;23.328;2024-03-02T08:06:58;13.01;58.14
85959;DHT22;76529;42.660;23.328;2024-03-02T08:09:23;12.98;58.18
85959;DHT22;76529;42.660;23.328;2024-03-02T08:11:49;12.98;58.18
85959;DHT22;76529;42.660;23.328;2024-03-02T08:14:14;12.99;58.03
85959;DHT22;76529;42.660;23.328;2024-03-02T08:16:40;12.96;57.91
85959;DHT22;76529;42.660;23.328;2024-03-02T08:19:06;12.96;58.00
85959;DHT22;76529;42.660;23.328;2024-03-02T08:21:32;12.95;57.80
85959;DHT22;76529;42.660;23.328;2024-03-02T08:24:00;12.89;57.97
85959;DHT22;76529;42.660;23.328;2024-03-02T08:26:25;12.87;58.24
85959;DHT22;76529;42.660;23.328;2024-03-02T08:28:54;12.78;58.41
85959;DHT22;76529;42.660;23.328;2024-03-02T08:31:19;12.73;58.66
85959;DHT22;76529;42.660;23.328;2024-03-02T08:33:45;12.69;58.94
85959;DHT22;76529;42.660;23.328;2024-03-02T08:36:10;12.65;58.81
85959;DHT22;76529;42.660;23.328;2024-03-02T08:38:36;12.63;59.14
85959;DHT22;76529;42.660;23.328;2024-03-02T08:41:02;12.61;59.05
85959;DHT22;76529;42.660;23.328;2024-03-02T08:43:28;12.64;59.00
85959;DHT22;76529;42.660;23.328;2024-03-02T08:45:54;12.65;59.05
85959;DHT22;76529;42.660;23.328;2024-03-02T08:48:20;12.64;59.14
85959;DHT22;76529;42.660;23.328;2024-03-02T08:50:46;12.64;59.22
85959;DHT22;76529;42.660;23.328;2024-03-02T08:53:11;12.65;59.52
85959;DHT22;76529;42.660;23.328;2024-03-02T08:55:37;12.63;59.41
85959;DHT22;76529;42.660;23.328;2024-03-02T08:58:03;12.67;59.35
85959;DHT22;76529;42.660;23.328;2024-03-02T09:00:28;12.71;59.29
85959;DHT22;76529;42.660;23.328;2024-03-02T09:02:54;12.75;59.19
85959;DHT22;76529;42.660;23.328;2024-03-02T09:05:19;12.78;59.14
85959;DHT22;76529;42.660;23.328;2024-03-02T09:07:45;12.84;59.21
85959;DHT22;76529;42.660;23.328;2024-03-02T09:10:10;12.87;59.16
85959;DHT22;76529;42.660;23.328;2024-03-02T09:12:37;12.89;59.06
85959;DHT22;76529;42.660;23.328;2024-03-02T09:15:03;12.92;59.09
85959;DHT22;76529;42.660;23.328;2024-03-02T09:17:29;12.98;59.06
85959;DHT22;76529;42.660;23.328;2024-03-02T09:19:55;12.98;58.93
85959;DHT22;76529;42.660;23.328;2024-03-02T09:22:21;12.99;58.83
85959;DHT22;76529;42.660;23.328;2024-03-02T09:24:46;13.04;58.67
85959;DHT22;76529;42.660;23.328;2024-03-02T09:27:12;13.05;58.63
85959;DHT22;76529;42.660;23.328;2024-03-02T09:29:38;13.06;58.61
85959;DHT22;76529;42.660;23.328;2024-03-02T09:32:05;13.08;58.69
85959;DHT22;76529;42.660;23.328;2024-03-02T09:34:31;13.11;58.73
85959;DHT22;76529;42.660;23.328;2024-03-02T09:36:57;13.15;58.77
85959;DHT22;76529;42.660;23.328;2024-03-02T09:39:23;13.15;58.80
85959;DHT22;76529;42.660;23.328;2024-03-02T09:41:48;13.19;58.80
85959;DHT22;76529;42.660;23.328;2024-03-02T09:44:14;13.25;58.80
85959;DHT22;76529;42.660;23.328;2024-03-02T09:46:40;13.29;58.83
85959;DHT22;76529;42.660;23.328;2024-03-02T09:49:05;13.33;58.83
85959;DHT22;76529;42.660;23.328;2024-03-02T09:51:31;13.39;58.82
85959;DHT22;76529;42.660;23.328;2024-03-02T09:53:57;13.40;58.70
85959;DHT22;76529;42.660;23.328;2024-03-02T09:56:22;13.43;58.53
85959;DHT22;76529;42.660;23.328;2024-03-02T09:58:48;13.46;58.40
85959;DHT22;76529;42.660;23.328;2024-03-02T10:01:14;13.47;58.42
85959;DHT22;76529;42.660;23.328;2024-03-02T10:03:39;13.50;58.39
85959;DHT22;76529;42.660;23.328;2024-03-02T10:08:46;13.52;58.27
85959;DHT22;76529;42.660;23.328;2024-03-02T10:11:25;13.53;58.34
85959;DHT22;76529;42.660;23.328;2024-03-02T10:14:07;13.55;58.39
85959;DHT22;76529;42.660;23.328;2024-03-02T10:16:37;13.53;58.42
85959;DHT22;76529;42.660;23.328;2024-03-02T10:19:21;13.53;58.38
85959;DHT22;76529;42.660;23.328;2024-03-02T10:21:51;13.53;58.41
85959;DHT22;76529;42.660;23.328;2024-03-02T10:24:18;13.55;58.46
85959;DHT22;76529;42.660;23.328;2024-03-02T10:26:43;13.57;58.48
85959;DHT22;76529;42.660;23.328;2024-03-02T10:29:09;13.57;58.54
85959;DHT22;76529;42.660;23.328;2024-03-02T10:31:39;13.63;58.52
85959;DHT22;76529;42.660;23.328;2024-03-02T10:34:05;13.64;58.58
85959;DHT22;76529;42.660;23.328;2024-03-02T10:36:35;13.64;58.57
85959;DHT22;76529;42.660;23.328;2024-03-02T10:39:05;13.64;58.65
85959;DHT22;76529;42.660;23.328;2024-03-02T10:41:38;13.67;58.60
85959;DHT22;76529;42.660;23.328;2024-03-02T10:44:09;13.67;58.69
85959;DHT22;76529;42.660;23.328;2024-03-02T10:46:36;13.67;58.77
85959;DHT22;76529;42.660;23.328;2024-03-02T10:49:04;13.69;58.67
85959;DHT22;76529;42.660;23.328;2024-03-02T10:51:31;13.70;58.65
85959;DHT22;76529;42.660;23.328;2024-03-02T10:53:58;13.70;58.66
85959;DHT22;76529;42.660;23.328;2024-03-02T10:56:34;13.71;58.71
85959;DHT22;76529;42.660;23.328;2024-03-02T11:01:58;13.73;58.81
85959;DHT22;76529;42.660;23.328;2024-03-02T11:04:28;13.76;58.79
85959;DHT22;76529;42.660;23.328;2024-03-02T11:07:01;13.77;58.66
85959;DHT22;76529;42.660;23.328;2024-03-02T11:09:28;13.80;58.56
85959;DHT22;76529;42.660;23.328;2024-03-02T11:12:06;13.78;58.57
85959;DHT22;76529;42.660;23.328;2024-03-02T11:14:38;13.83;58.61
85959;DHT22;76529;42.660;23.328;2024-03-02T11:17:06;13.81;58.62
85959;DHT22;76529;42.660;23.328;2024-03-02T11:19:32;13.80;58.56
85959;DHT22;76529;42.660;23.328;2024-03-02T11:21:59;13.81;58.62
85959;DHT22;76529;42.660;23.328;2024-03-02T11:27:09;13.81;58.60
85959;DHT22;76529;42.660;23.328;2024-03-02T11:32:14;13.76;58.81
85959;DHT22;76529;42.660;23.328;2024-03-02T11:34:41;13.71;58.95
85959;DHT22;76529;42.660;23.328;2024-03-02T11:37:12;13.70;59.22
85959;DHT22;76529;42.660;23.328;2024-03-02T11:39:39;13.64;59.58
85959;DHT22;76529;42.660;23.328;2024-03-02T11:42:07;13.59;59.44
85959;DHT22;76529;42.660;23.328;2024-03-02T11:44:36;13.59;59.37
85959;DHT22;76529;42.660;23.328;2024-03-02T11:47:06;13.63;59.29
85959;DHT22;76529;42.660;23.328;2024-03-02T11:49:48;13.66;59.16
85959;DHT22;76529;42.660;23.328;2024-03-02T11:52:15;13.63;59.14
85959;DHT22;76529;42.660;23.328;2024-03-02T11:54:46;13.66;59.05
85959;DHT22;76529;42.660;23.328;2024-03-02T11:57:16;13.70;59.05
85959;DHT22;76529;42.660;23.328;2024-03-02T11:59:42;13.70;59.09
85959;DHT22;76529;42.660;23.328;2024-03-02T12:02:15;13.71;59.09
85959;DHT22;76529;42.660;23.328;2024-03-02T12:04:42;13.71;59.00
85959;DHT22;76529;42.660;23.328;2024-03-02T12:07:09;13.74;59.00
85959;DHT22;76529;42.660;23.328;2024-03-02T12:09:34;13.76;58.93
85959;DHT22;76529;42.660;23.328;2024-03-02T12:14:30;13.77;58.71
85959;DHT22;76529;42.660;23.328;2024-03-02T12:16:55;13.78;58.59
85959;DHT22;76529;42.660;23.328;2024-03-02T12:19:21;13.77;58.50
85959;DHT22;76529;42.660;23.328;2024-03-02T12:21:47;13.77;58.42
85959;DHT22;76529;42.660;23.328;2024-03-02T12:24:12;13.76;58.36
85959;DHT22;76529;42.660;23.328;2024-03-02T12:26:38;13.74;58.41
85959;DHT22;76529;42.660;23.328;2024-03-02T12:29:04;13.74;58.44
85959;DHT22;76529;42.660;23.328;2024-03-02T12:31:29;13.74;58.49
85959;DHT22;76529;42.660;23.328;2024-03-02T12:33:55;13.74;58.48
85959;DHT22;76529;42.660;23.328;2024-03-02T12:36:22;13.73;58.54
85959;DHT22;76529;42.660;23.328;2024-03-02T12:38:47;13.73;58.57
85959;DHT22;76529;42.660;23.328;2024-03-02T12:41:16;13.73;58.63
85959;DHT22;76529;42.660;23.328;2024-03-02T12:43:42;13.73;58.73
85959;DHT22;76529;42.660;23.328;2024-03-02T12:46:07;13.71;58.76
85959;DHT22;76529;42.660;23.328;2024-03-02T12:48:34;13.71;58.80
85959;DHT22;76529;42.660;23.328;2024-03-02T12:51:00;13.71;58.83
85959;DHT22;76529;42.660;23.328;2024-03-02T12:53:26;13.74;58.85
85959;DHT22;76529;42.660;23.328;2024-03-02T12:55:52;13.73;58.91
85959;DHT22;76529;42.660;23.328;2024-03-02T12:58:21;13.74;58.87
85959;DHT22;76529;42.660;23.328;2024-03-02T13:00:48;13.74;58.87
85959;DHT22;76529;42.660;23.328;2024-03-02T13:03:13;13.76;58.92
85959;DHT22;76529;42.660;23.328;2024-03-02T13:05:39;13.83;58.88
85959;DHT22;76529;42.660;23.328;2024-03-02T13:08:06;13.81;58.83
85959;DHT22;76529;42.660;23.328;2024-03-02T13:10:32;13.85;58.76
85959;DHT22;76529;42.660;23.328;2024-03-02T13:12:58;13.88;58.69
85959;DHT22;76529;42.660;23.328;2024-03-02T13:15:26;13.91;58.61
85959;DHT22;76529;42.660;23.328;2024-03-02T13:17:52;13.90;58.59
85959;DHT22;76529;42.660;23.328;2024-03-02T13:20:17;13.95;58.52
85959;DHT22;76529;42.660;23.328;2024-03-02T13:22:44;13.97;58.43
85959;DHT22;76529;42.660;23.328;2024-03-02T13:25:09;13.98;58.39
85959;DHT22;76529;42.660;23.328;2024-03-02T13:27:36;14.00;58.32
85959;DHT22;76529;42.660;23.328;2024-03-02T13:30:02;14.03;58.21
85959;DHT22;76529;42.660;23.328;2024-03-02T13:32:28;14.08;58.14
85959;DHT22;76529;42.660;23.328;2024-03-02T13:34:53;14.07;58.18
85959;DHT22;76529;42.660;23.328;2024-03-02T13:37:20;14.10;58.21
85959;DHT22;76529;42.660;23.328;2024-03-02T13:39:46;14.07;58.24
85959;DHT22;76529;42.660;23.328;2024-03-02T13:42:12;14.10;58.27
85959;DHT22;76529;42.660;23.328;2024-03-02T13:44:40;14.01;58.32
85959;DHT22;76529;42.660;23.328;2024-03-02T13:47:06;14.01;58.34
85959;DHT22;76529;42.660;23.328;2024-03-02T13:49:31;14.04;58.33
85959;DHT22;76529;42.660;23.328;2024-03-02T13:52:05;14.03;58.31
85959;DHT22;76529;42.660;23.328;2024-03-02T13:54:45;14.01;58.31
85959;DHT22;76529;42.660;23.328;2024-03-02T13:57:11;14.01;58.36
85959;DHT22;76529;42.660;23.328;2024-03-02T13:59:37;14.04;58.28
85959;DHT22;76529;42.660;23.328;2024-03-02T14:02:04;14.05;58.19
85959;DHT22;76529;42.660;23.328;2024-03-02T14:04:36;14.08;58.12
85959;DHT22;76529;42.660;23.328;2024-03-02T14:07:02;14.10;58.12
85959;DHT22;76529;42.660;23.328;2024-03-02T14:09:28;14.13;58.03
85959;DHT22;76529;42.660;23.328;2024-03-02T14:11:54;14.14;58.06
85959;DHT22;76529;42.660;23.328;2024-03-02T14:14:20;14.14;58.11
85959;DHT22;76529;42.660;23.328;2024-03-02T14:16:46;14.18;58.09
85959;DHT22;76529;42.660;23.328;2024-03-02T14:19:12;14.18;58.08
85959;DHT22;76529;42.660;23.328;2024-03-02T14:21:41;14.22;58.06
85959;DHT22;76529;42.660;23.328;2024-03-02T14:24:07;14.24;58.01
85959;DHT22;76529;42.660;23.328;2024-03-02T14:26:33;14.26;58.00
85959;DHT22;76529;42.660;23.328;2024-03-02T14:28:59;14.26;57.92
85959;DHT22;76529;42.660;23.328;2024-03-02T14:31:27;14.28;57.93
85959;DHT22;76529;42.660;23.328;2024-03-02T14:33:53;14.29;57.92
85959;DHT22;76529;42.660;23.328;2024-03-02T14:36:18;14.31;57.94
85959;DHT22;76529;42.660;23.328;2024-03-02T14:38:44;14.34;57.88
85959;DHT22;76529;42.660;23.328;2024-03-02T14:41:10;14.32;57.80
85959;DHT22;76529;42.660;23.328;2024-03-02T14:43:36;14.38;57.79
85959;DHT22;76529;42.660;23.328;2024-03-02T14:46:03;14.36;57.70
85959;DHT22;76529;42.660;23.328;2024-03-02T14:48:29;14.38;57.60
85959;DHT22;76529;42.660;23.328;2024-03-02T14:50:55;14.39;57.48
85959;DHT22;76529;42.660;23.328;2024-03-02T14:53:21;14.41;57.45
85959;DHT22;76529;42.660;23.328;2024-03-02T14:55:46;14.39;57.42
85959;DHT22;76529;42.660;23.328;2024-03-02T14:58:12;14.39;57.38
85959;DHT22;76529;42.660;23.328;2024-03-02T15:00:37;14.42;57.35
85959;DHT22;76529;42.660;23.328;2024-03-02T15:03:04;14.42;57.31
85959;DHT22;76529;42.660;23.328;2024-03-02T15:05:31;14.41;57.29
85959;DHT22;76529;42.660;23.328;2024-03-02T15:07:57;14.43;57.36
85959;DHT22;76529;42.660;23.328;2024-03-02T15:10:24;14.41;57.41
85959;DHT22;76529;42.660;23.328;2024-03-02T15:12:50;14.43;57.39
85959;DHT22;76529;42.660;23.328;2024-03-02T15:15:15;14.43;57.43
85959;DHT22;76529;42.660;23.328;2024-03-02T15:17:41;14.42;57.49
85959;DHT22;76529;42.660;23.328;2024-03-02T15:20:07;14.41;57.58
85959;DHT22;76529;42.660;23.328;2024-03-02T15:22:33;14.41;57.66
85959;DHT22;76529;42.660;23.328;2024-03-02T15:24:58;14.41;57.65
85959;DHT22;76529;42.660;23.328;2024-03-02T15:27:24;14.41;57.68
85959;DHT22;76529;42.660;23.328;2024-03-02T15:29:50;14.42;57.72
85959;DHT22;76529;42.660;23.328;2024-03-02T15:32:17;14.45;57.78